Latest Weather Observations for Blackall

IDQ60801

Issued at 3:32 pm EST Sunday 26 February 2017 (issued every 30 minutes, with the page automatically refreshed every 10 minutes)

About weather observations | Map of weather stations | Latest weather observations for QLD | Other Formats
Station Details ID: 036034 Name: BLACKALL AIRPORT Lat: -24.43 Lon: 145.43 Height: 281.3 m
Data from the previous 72 hours. | See also: Recent months at Blackall
Date/Time
EST
Temp
°C
App
Temp
°C
Dew
Point
°C
Rel
Hum
%
Delta-T
°C
Wind Press
QNH
hPa
Press
MSL
hPa
Rain since
9am
mm
Dir  Spd
km/h
Gust
km/h
Spd
kts
Gust
kts
26/03:00pm 35.4 33.5 11.7 23 14.3 NW 13 22 7 12 1010.5 1008.5 0.0
26/02:30pm 35.0 32.4 12.0 25 13.9 NNE 17 24 9 13 1011.0 1009.0 0.0
26/02:00pm 35.4 34.0 14.6 28 13.0 NNE 15 24 8 13 1011.6 1009.6 0.0
26/01:30pm 34.5 32.7 14.4 30 12.5 NNW 17 22 9 12 1012.0 1010.0 0.0
26/01:00pm 34.2 32.6 15.1 31 12.0 NNE 17 26 9 14 1012.5 1010.5 0.0
26/12:30pm 33.4 31.4 15.4 34 11.3 NE 20 30 11 16 1013.0 1011.1 0.0
26/12:00pm 32.0 29.5 14.2 34 11.0 N 20 32 11 17 1013.5 1011.6 0.0
26/11:30am 32.3 30.6 16.2 38 10.2 NNE 20 32 11 17 1013.8 1011.9 0.0
26/11:00am 31.3 28.5 15.3 38 10.0 NNE 24 39 13 21 1014.0 1012.1 0.0
26/10:30am 30.0 27.3 15.7 42 8.9 N 24 35 13 19 1014.8 1012.8 0.0
26/10:00am 29.7 27.0 16.5 45 8.3 NNE 26 37 14 20 1015.0 1013.0 0.0
26/09:30am 28.5 24.6 16.4 48 7.6 NNE 32 43 17 23 1014.8 1012.8 0.0
26/09:00am 28.2 25.1 16.5 49 7.4 NNE 28 44 15 24 1014.8 1012.8 0.0
26/08:30am 27.2 25.0 16.8 53 6.5 NNE 24 35 13 19 1014.6 1012.6 0.0
26/08:00am 26.6 24.0 16.8 55 6.2 NNE 26 41 14 22 1014.7 1012.7 0.0
26/07:30am 25.7 23.3 16.3 56 5.8 NE 24 33 13 18 1014.6 1012.6 0.0
26/07:00am 25.4 22.5 13.9 49 6.9 ENE 22 30 12 16 1014.2 1012.2 0.0
26/06:30am 25.9 22.4 13.4 46 7.4 E 24 37 13 20 1013.8 1011.9 0.0
26/06:00am 26.3 22.5 12.4 42 8.1 ESE 24 37 13 20 1013.3 1011.4 0.0
26/05:30am 24.9 22.4 13.5 49 6.7 ESE 19 24 10 13 1012.5 1010.5 0.0
26/05:00am 24.3 23.6 13.2 50 6.5 E 9 13 5 7 1011.1 1009.1 0.0
26/04:30am 23.9 23.8 13.4 51 6.2 N 6 9 3 5 1010.6 1008.6 0.0
26/04:00am 24.8 25.6 12.7 47 7.1 CALM 0 0 0 0 1010.3 1008.4 0.0
26/03:30am 25.8 26.8 13.3 46 7.4 CALM 0 0 0 0 1010.0 1008.1 0.0
26/03:00am 25.8 25.5 13.3 46 7.4 ENE 7 11 4 6 1009.8 1007.9 0.0
26/02:30am 25.4 25.1 13.3 47 7.2 ENE 7 9 4 5 1009.7 1007.8 0.0
26/02:00am 25.6 26.3 13.5 47 7.2 N 2 7 1 4 1009.8 1007.9 0.0
26/01:30am 25.8 25.6 13.6 47 7.3 ENE 7 9 4 5 1010.1 1008.2 0.0
26/01:00am 25.7 25.4 14.5 50 6.8 NE 9 9 5 5 1010.2 1008.3 0.0
26/12:30am 25.5 26.0 12.7 45 7.5 E 2 11 1 6 1010.8 1008.8 0.0
26/12:00am 25.4 25.9 11.6 42 7.9 CALM 0 6 0 3 1010.8 1008.8 0.0
 
Date/Time
EST
Temp
°C
App
Temp
°C
Dew
Point
°C
Rel
Hum
%
Delta-T
°C
Wind Press
QNH
hPa
Press
MSL
hPa
Rain since
9am
mm
Dir  Spd
km/h
Gust
km/h
Spd
kts
Gust
kts
25/11:30pm 26.7 26.1 11.6 39 8.7 NNE 6 7 3 4 1011.1 1009.1 0.0
25/11:00pm 26.8 25.1 11.3 38 8.9 NE 11 13 6 7 1011.3 1009.3 0.0
25/10:30pm 27.6 26.2 10.8 35 9.6 NNE 9 11 5 6 1011.3 1009.3 0.0
25/10:00pm 28.1 26.5 10.3 33 10.2 NE 9 11 5 6 1011.4 1009.4 0.0
25/09:30pm 28.7 26.4 10.4 32 10.5 NE 13 19 7 10 1011.4 1009.4 0.0
25/09:00pm 30.3 28.0 10.3 29 11.5 NE 13 17 7 9 1011.3 1009.3 0.0
25/08:30pm 30.4 27.8 9.3 27 12.0 NE 13 17 7 9 1011.2 1009.2 0.0
25/08:00pm 31.0 28.9 9.8 27 12.2 NE 11 13 6 7 1010.8 1008.8 0.0
25/07:30pm 33.3 29.8 8.7 22 14.0 E 17 22 9 12 1010.6 1008.6 0.0
25/07:00pm 33.1 32.8 8.5 22 14.0 CALM 0 4 0 2 1010.1 1008.2 0.0
25/06:30pm 35.4 33.7 8.3 19 15.5 SE 7 9 4 5 1009.9 1008.0 0.0
25/06:00pm 36.8 33.8 7.8 17 16.6 SE 13 20 7 11 1009.8 1007.9 0.0
25/05:30pm 37.5 33.5 6.5 15 17.4 E 17 26 9 14 1009.8 1007.9 0.0
25/05:00pm 37.1 34.9 8.0 17 16.7 E 9 15 5 8 1009.9 1008.0 0.0
25/04:30pm 37.1 33.0 8.0 17 16.7 ESE 19 30 10 16 1010.0 1008.1 0.0
25/04:00pm 36.9 33.2 7.8 17 16.6 SSE 17 26 9 14 1010.1 1008.2 0.0
25/03:30pm 38.5 36.6 9.1 17 17.2 S 9 19 5 10 1010.3 1008.4 0.0
25/03:00pm 37.8 34.0 7.7 16 17.2 ESE 17 26 9 14 1010.7 1008.7 0.0
25/02:30pm 38.1 35.0 8.8 17 17.1 ESE 15 28 8 15 1011.3 1009.3 0.0
25/02:00pm 36.4 35.1 9.1 19 15.9 E 6 20 3 11 1011.8 1009.8 0.0
25/01:30pm 36.5 34.4 9.9 20 15.6 E 11 19 6 10 1012.4 1010.4 0.0
25/01:00pm 36.6 34.2 10.0 20 15.7 ESE 13 22 7 12 1012.9 1011.0 0.0
25/12:30pm 35.6 33.0 10.6 22 14.8 NE 15 26 8 14 1013.4 1011.5 0.0
25/12:00pm 35.5 33.6 11.8 24 14.3 NNE 13 24 7 13 1013.8 1011.9 0.0
25/11:30am 34.8 33.1 13.6 28 13.1 N 15 26 8 14 1014.6 1012.6 0.0
25/11:00am 33.7 32.6 14.2 30 12.1 NNE 13 22 7 12 1014.9 1012.9 0.0
25/10:30am 33.6 32.4 15.1 33 11.6 NNE 15 22 8 12 1015.4 1013.4 0.0
25/10:00am 31.9 30.7 16.2 38 9.9 N 17 26 9 14 1015.7 1013.7 0.0
25/09:30am 30.8 29.3 16.4 42 9.1 N 19 26 10 14 1015.7 1013.7 0.0
25/09:00am 29.8 28.6 16.2 43 8.6 NNE 17 26 9 14 1015.7 1013.7 0.0
25/08:30am 29.1 27.5 16.0 45 8.2 NNE 19 26 10 14 1015.5 1013.5 0.0
25/08:00am 27.8 26.1 13.7 42 8.5 NE 15 24 8 13 1015.5 1013.5 0.0
25/07:30am 26.0 24.1 11.7 41 8.3 ENE 13 22 7 12 1015.2 1013.2 0.0
25/07:00am 23.1 22.3 11.8 49 6.4 E 7 7 4 4 1014.8 1012.8 0.0
25/06:30am 21.4 20.1 11.4 53 5.6 ENE 9 13 5 7 1014.3 1012.3 0.0
25/06:00am 20.5 19.5 10.9 54 5.3 E 7 9 4 5 1013.8 1011.9 0.0
25/05:30am 20.5 19.0 10.6 53 5.5 ESE 9 11 5 6 1013.4 1011.5 0.0
25/05:00am 20.3 19.0 11.2 56 5.1 ESE 9 9 5 5 1013.0 1011.1 0.0
25/04:30am 20.2 19.3 10.6 54 5.3 SSE 6 7 3 4 1012.7 1010.7 0.0
25/04:00am 21.2 20.3 11.2 53 5.6 ENE 7 7 4 4 1012.5 1010.5 0.0
25/03:30am 21.5 20.5 10.3 49 6.2 E 6 6 3 3 1012.7 1010.7 0.0
25/03:00am 22.6 22.3 10.1 45 6.9 ESE 2 6 1 3 1012.7 1010.7 0.0
25/02:30am 23.1 21.8 9.8 43 7.3 SE 7 9 4 5 1012.6 1010.6 0.0
25/02:00am 24.0 22.7 9.2 39 8.1 SE 6 9 3 5 1012.8 1010.9 0.0
25/01:30am 24.9 23.4 9.2 37 8.6 ESE 7 9 4 5 1012.9 1011.0 0.0
25/01:00am 25.4 23.0 8.8 35 9.1 E 11 13 6 7 1013.1 1011.2 0.0
25/12:30am 26.3 23.9 8.8 33 9.6 E 11 15 6 8 1013.2 1011.3 0.0
25/12:00am 26.2 23.4 8.7 33 9.6 ESE 13 15 7 8 1013.5 1011.6 0.0
 
Date/Time
EST
Temp
°C
App
Temp
°C
Dew
Point
°C
Rel
Hum
%
Delta-T
°C
Wind Press
QNH
hPa
Press
MSL
hPa
Rain since
9am
mm
Dir  Spd
km/h
Gust
km/h
Spd
kts
Gust
kts
24/11:30pm 26.5 23.7 8.5 32 9.9 ESE 13 17 7 9 1013.7 1011.8 0.0
24/11:00pm 26.8 24.4 8.7 32 10.0 SE 11 13 6 7 1013.5 1011.6 0.0
24/10:30pm 26.7 24.3 8.6 32 10.0 SE 11 11 6 6 1013.5 1011.6 0.0
24/10:00pm 27.9 25.9 8.7 30 10.6 ESE 9 11 5 6 1013.3 1011.4 0.0
24/09:30pm 28.8 26.9 9.0 29 11.1 ESE 9 11 5 6 1013.3 1011.4 0.0
24/09:00pm 30.0 27.9 8.4 26 12.0 SE 9 11 5 6 1013.2 1011.3 0.0
24/08:30pm 30.1 28.2 9.1 27 11.8 SE 9 9 5 5 1013.1 1011.2 0.0
24/08:00pm 31.2 29.1 8.2 24 12.9 SSE 9 11 5 6 1013.0 1011.1 0.0
24/07:30pm 32.5 30.2 7.4 21 13.9 SSE 9 11 5 6 1012.9 1011.0 0.0
24/07:00pm 34.0 31.4 6.3 18 15.2 SSE 9 13 5 7 1012.7 1010.7 0.0
24/06:30pm 35.5 32.1 5.8 16 16.3 SSE 13 20 7 11 1012.5 1010.5 0.0
24/06:00pm 36.2 32.9 8.1 18 16.1 SSE 15 22 8 12 1012.2 1010.2 0.0
24/05:30pm 37.1 33.6 7.1 16 17.0 SE 15 24 8 13 1012.3 1010.3 0.0
24/05:00pm 37.4 32.8 6.4 15 17.4 SE 20 41 11 22 1012.3 1010.3 0.0
24/04:30pm 37.7 33.3 6.6 15 17.5 SE 19 33 10 18 1012.4 1010.4 0.0
24/04:00pm 37.2 34.5 7.2 16 17.0 E 11 19 6 10 1012.5 1010.5 0.0
24/03:30pm 37.2 34.5 8.9 18 16.4 NE 13 20 7 11 1012.7 1010.7 0.0
24/03:00pm 36.9 33.4 8.7 18 16.3 ENE 17 24 9 13 1013.1 1011.2 0.0
24/02:30pm 36.5 33.7 9.9 20 15.6 ESE 15 24 8 13 1013.6 1011.7 0.0
24/02:00pm 37.1 34.6 9.6 19 16.1 E 13 22 7 12 1014.2 1012.2 0.0
24/01:30pm 36.4 33.0 9.1 19 15.8 E 17 26 9 14 1014.6 1012.6 0.0
24/01:00pm 36.1 33.0 8.8 19 15.7 S 15 24 8 13 1015.1 1013.1 0.0
24/12:30pm 35.8 34.2 10.1 21 15.1 SE 9 19 5 10 1015.6 1013.6 0.0
24/12:00pm 35.9 33.2 10.2 21 15.1 E 15 26 8 14 1016.1 1014.2 0.0
24/11:30am 34.4 32.4 10.3 23 14.1 E 11 17 6 9 1016.6 1014.7 0.0
24/11:00am 34.1 32.8 11.3 25 13.5 E 9 19 5 10 1016.9 1015.0 0.0
24/10:30am 33.3 31.8 11.8 27 12.8 NNE 11 19 6 10 1017.2 1015.3 0.0
24/10:00am 33.1 31.9 12.7 29 12.3 NE 11 17 6 9 1017.5 1015.6 0.0
24/09:30am 31.6 29.9 12.4 31 11.5 NNE 13 19 7 10 1017.6 1015.7 0.0
24/09:00am 31.3 29.4 13.1 33 11.0 NE 15 20 8 11 1017.5 1015.6 0.0
24/08:30am 30.0 27.9 13.7 37 9.9 ENE 17 22 9 12 1017.3 1015.4 0.0
24/08:00am 28.8 27.4 14.6 42 8.7 E 15 20 8 11 1017.2 1015.3 0.0
24/07:30am 26.2 26.6 16.4 54 6.1 ESE 9 15 5 8 1016.9 1015.0 0.0
24/07:00am 24.0 24.8 17.3 66 4.2 SE 9 13 5 7 1016.7 1014.8 0.0
24/06:30am 22.4 23.9 17.5 74 3.1 SSE 6 7 3 4 1016.5 1014.6 0.0
24/06:00am 22.0 24.6 17.4 75 2.9 CALM 0 2 0 1 1016.1 1014.2 0.0
24/05:30am 22.4 23.3 17.5 74 3.1 SE 9 9 5 5 1015.6 1013.6 0.0
24/05:00am 22.7 24.0 17.6 73 3.2 SSE 7 9 4 5 1015.4 1013.4 0.0
24/04:30am 23.2 24.6 17.7 71 3.5 SSE 7 9 4 5 1015.2 1013.2 0.0
24/04:00am 23.5 24.9 17.9 71 3.5 SSE 7 7 4 4 1015.1 1013.1 0.0
24/03:30am 23.5 25.1 18.2 72 3.4 SSE 7 9 4 5 1015.2 1013.2 0.0
24/03:00am 23.5 25.3 18.2 72 3.4 SW 6 7 3 4 1015.3 1013.3 0.0
24/02:30am 23.9 26.8 18.3 71 3.6 CALM 0 2 0 1 1015.2 1013.2 0.0
24/02:00am 24.6 26.4 18.3 68 4.0 E 6 7 3 4 1015.3 1013.3 0.0
24/01:30am 25.0 27.9 18.2 66 4.3 CALM 0 0 0 0 1015.5 1013.5 0.0
24/01:00am 25.9 27.4 18.8 65 4.6 SE 9 11 5 6 1015.9 1013.9 0.0
24/12:30am 25.9 27.5 19.1 66 4.4 ESE 9 13 5 7 1016.0 1014.1 0.0
24/12:00am 26.1 28.0 19.0 65 4.6 SE 7 11 4 6 1016.4 1014.5 0.0
 
Date/Time
EST
Temp
°C
App
Temp
°C
Dew
Point
°C
Rel
Hum
%
Delta-T
°C
Wind Press
QNH
hPa
Press
MSL
hPa
Rain since
9am
mm
Dir  Spd
km/h
Gust
km/h
Spd
kts
Gust
kts
23/11:30pm 26.4 28.2 18.8 63 4.9 S 7 9 4 5 1016.3 1014.4 0.0
23/11:00pm 26.6 28.2 18.2 60 5.4 SSW 7 11 4 6 1016.3 1014.4 0.0
23/10:30pm 27.0 28.2 18.3 59 5.6 SSW 9 13 5 7 1016.4 1014.5 0.0
23/10:00pm 27.2 28.4 18.2 58 5.8 SSW 9 13 5 7 1016.3 1014.4 0.0
23/09:30pm 27.2 30.1 18.2 58 5.8 CALM 0 0 0 0 1016.2 1014.3 0.0
23/09:00pm 27.4 28.2 18.1 57 6.0 SSW 11 17 6 9 1016.0 1014.1 0.0
23/08:30pm 27.8 28.7 17.6 53 6.5 SSW 9 11 5 6 1015.8 1013.8 0.0
23/08:00pm 27.9 28.9 17.7 53 6.5 SW 9 13 5 7 1015.5 1013.5 0.0
23/07:30pm 28.0 28.6 17.8 54 6.5 SW 11 17 6 9 1015.3 1013.3 0.0
23/07:00pm 27.6 27.2 18.0 55 6.2 SW 17 24 9 13 1015.3 1013.3 0.0
23/06:30pm 28.4 27.2 17.6 52 6.9 SW 20 28 11 15 1015.2 1013.2 0.0
23/06:00pm 29.6 27.5 18.1 50 7.4 SW 26 35 14 19 1014.9 1012.9 0.0
23/05:30pm 33.2 31.4 13.3 30 12.1 S 15 20 8 11 1014.4 1012.4 0.0
23/05:00pm 33.3 30.9 13.9 31 11.9 SSE 19 28 10 15 1014.2 1012.2 0.0
23/04:30pm 33.3 31.1 14.8 32 11.5 SSE 20 30 11 16 1014.2 1012.2 0.0
23/04:00pm 32.9 30.6 15.8 35 10.8 SE 22 32 12 17 1014.2 1012.2 0.0

Other Formats:

Comma delimited format used in spreadsheet applications
http://www.bom.gov.au/fwo/IDQ60801/IDQ60801.95351.axf

JavaScript Object Notation format (JSON) in row-major order
http://www.bom.gov.au/fwo/IDQ60801/IDQ60801.95351.json